Time;durP1;ratioP1;P1;durP2;ratioP2;P2;SDS_P1;SDS_P2;PMS_P1;PMS_P2;Temp;Humidity;BMP_temperature;BMP_pressure;BME280_temperature;BME280_humidity;BME280_pressure;Samples;Min_cycle;Max_cycle;Signal;HPM_P1;HPM_P2
2023/03/01 02:49:00;;;;;;;13.68;10.35;;;5.10;99.90;;;;;;5021470;28;20043;-63
2023/03/01 06:22:49;;;;;;;;;;;5.50;99.90;;;;;;5022620;28;20586;-62
2023/03/01 11:09:44;;;;;;;6.05;4.22;;;11.20;91.70;;;;;;5034257;28;20106;-63
2023/03/01 11:12:15;;;;;;;4.80;4.30;;;11.60;90.50;;;;;;5022892;28;20049;-62
2023/03/01 11:14:55;;;;;;;6.32;4.95;;;11.70;90.70;;;;;;5012183;28;20210;-62
2023/03/01 12:08:43;;;;;;;6.50;2.35;;;12.80;82.60;;;;;;5028307;28;21179;-67
2023/03/01 12:36:52;;;;;;;2.80;2.30;;;12.90;80.90;;;;;;5029313;28;20207;-66
2023/03/01 13:28:44;;;;;;;5.07;1.70;;;14.10;78.10;;;;;;4997293;28;20091;-62
2023/03/01 15:17:38;;;;;;;4.85;3.60;;;22.80;47.80;;;;;;5013539;28;20050;-70
2023/03/01 15:20:16;;;;;;;3.85;3.10;;;22.60;47.00;;;;;;5012417;28;20091;-64
2023/03/01 15:22:48;;;;;;;3.40;2.00;;;22.50;47.60;;;;;;5031437;28;20417;-63
2023/03/01 15:25:26;;;;;;;3.85;1.08;;;22.40;48.00;;;;;;5016782;28;20056;-64
2023/03/01 15:27:53;;;;;;;2.78;1.38;;;22.40;47.80;;;;;;5024110;28;20040;-64
2023/03/01 15:30:34;;;;;;;2.28;1.10;;;22.20;47.50;;;;;;5026330;28;20053;-62
2023/03/01 15:33:19;;;;;;;3.90;1.25;;;21.90;47.10;;;;;;5010810;28;20033;-62
2023/03/01 15:35:47;;;;;;;4.13;1.13;;;21.60;47.00;;;;;;5024494;28;20037;-63
2023/03/01 15:38:54;;;;;;;2.58;1.23;;;21.40;48.30;;;;;;5012091;28;20116;-67
2023/03/01 15:41:24;;;;;;;6.53;1.13;;;21.30;48.20;;;;;;5006620;28;20041;-68
2023/03/01 15:43:50;;;;;;;2.30;1.02;;;21.20;49.60;;;;;;5027662;28;20135;-68
2023/03/01 15:46:23;;;;;;;6.68;1.25;;;21.00;50.00;;;;;;4991022;28;20439;-68
2023/03/01 15:48:56;;;;;;;2.88;1.02;;;20.70;50.60;;;;;;5024777;28;20041;-69
2023/03/01 15:51:37;;;;;;;2.53;1.10;;;20.30;51.70;;;;;;5016811;28;20769;-70
2023/03/01 15:54:17;;;;;;;3.42;1.58;;;19.50;52.10;;;;;;5028240;28;20079;-63
2023/03/01 15:56:44;;;;;;;4.82;1.40;;;18.40;53.40;;;;;;5030608;28;20033;-62
2023/03/01 15:59:13;;;;;;;4.65;1.42;;;17.40;55.90;;;;;;5018555;28;20048;-62
2023/03/01 16:01:38;;;;;;;3.75;1.30;;;16.70;57.10;;;;;;4995802;28;20052;-62
2023/03/01 16:04:04;;;;;;;1.35;1.08;;;16.20;58.10;;;;;;5013692;28;20099;-62
2023/03/01 16:06:31;;;;;;;3.55;1.40;;;15.70;59.20;;;;;;5012716;28;20043;-62
2023/03/01 16:08:56;;;;;;;4.75;1.50;;;15.30;59.90;;;;;;5020995;28;20064;-62
2023/03/01 16:11:22;;;;;;;2.67;1.20;;;14.90;61.40;;;;;;5006662;28;20029;-63
2023/03/01 16:13:49;;;;;;;4.10;1.30;;;14.50;62.50;;;;;;5024580;28;20390;-69
2023/03/01 16:16:16;;;;;;;10.07;1.17;;;14.20;64.00;;;;;;5025080;28;20076;-67
2023/03/01 16:18:44;;;;;;;4.82;1.10;;;13.90;65.10;;;;;;5026815;28;20433;-68
2023/03/01 16:21:22;;;;;;;3.58;1.42;;;13.60;66.40;;;;;;5011970;28;20052;-67
2023/03/01 16:23:48;;;;;;;6.93;1.58;;;13.40;67.30;;;;;;5024003;28;20474;-67
2023/03/01 16:26:15;;;;;;;4.90;2.33;;;13.10;70.30;;;;;;5017649;28;20053;-66
2023/03/01 16:28:42;;;;;;;5.75;2.75;;;12.70;71.50;;;;;;5019363;28;20615;-67
2023/03/01 16:31:08;;;;;;;4.65;2.72;;;12.40;72.40;;;;;;5023940;28;20045;-66
2023/03/01 16:33:35;;;;;;;3.60;2.10;;;12.20;74.00;;;;;;5003464;28;20062;-62
2023/03/01 16:36:11;;;;;;;5.30;1.73;;;12.00;75.00;;;;;;5016764;28;20145;-62
2023/03/01 16:38:38;;;;;;;3.92;2.17;;;11.90;76.20;;;;;;5014790;28;20219;-62
2023/03/01 16:41:05;;;;;;;4.20;1.90;;;11.70;76.60;;;;;;5027625;28;20129;-62
2023/03/01 16:43:33;;;;;;;5.90;1.95;;;11.60;77.50;;;;;;5004990;28;20128;-63
2023/03/01 16:45:59;;;;;;;5.55;2.53;;;11.30;76.10;;;;;;5001996;28;20580;-63
2023/03/01 16:48:25;;;;;;;7.22;2.75;;;11.00;77.10;;;;;;5021328;28;20040;-63
2023/03/01 16:51:02;;;;;;;3.83;2.58;;;10.80;78.30;;;;;;5019831;28;20041;-63
2023/03/01 16:53:29;;;;;;;7.47;4.15;;;10.60;79.30;;;;;;4986070;28;20616;-63
2023/03/01 16:55:56;;;;;;;4.57;2.70;;;10.50;80.30;;;;;;5017839;28;20048;-62
2023/03/01 16:58:24;;;;;;;10.80;3.55;;;10.40;82.50;;;;;;5013321;28;20173;-62
2023/03/01 17:00:53;;;;;;;7.00;2.92;;;10.40;83.90;;;;;;5015106;28;20057;-63
2023/03/01 17:03:23;;;;;;;4.53;2.40;;;10.20;84.60;;;;;;5019064;28;20090;-65
2023/03/01 17:05:49;;;;;;;4.75;1.73;;;10.00;86.40;;;;;;5012822;28;20047;-62
2023/03/01 17:08:16;;;;;;;2.33;1.40;;;9.80;89.30;;;;;;5024002;28;20468;-63
2023/03/01 17:10:42;;;;;;;3.25;1.50;;;9.50;89.50;;;;;;5023561;28;20036;-68
2023/03/01 17:13:09;;;;;;;2.72;2.30;;;9.40;90.10;;;;;;5019904;28;20038;-66
2023/03/01 17:15:37;;;;;;;4.75;2.25;;;9.30;90.80;;;;;;5015719;28;20080;-67
2023/03/01 17:18:04;;;;;;;2.65;1.40;;;9.10;91.40;;;;;;4983349;28;20033;-67
2023/03/01 17:20:30;;;;;;;2.33;1.45;;;9.00;92.50;;;;;;5026964;28;20036;-66
2023/03/01 17:22:56;;;;;;;7.25;1.67;;;8.90;92.50;;;;;;5023812;28;20045;-66
2023/03/01 17:25:22;;;;;;;4.38;1.60;;;8.70;93.50;;;;;;5024897;28;20506;-66
2023/03/01 17:27:47;;;;;;;10.30;2.25;;;8.60;93.90;;;;;;5022366;28;20071;-66
2023/03/01 17:30:14;;;;;;;3.17;1.40;;;8.50;94.40;;;;;;5019889;28;20045;-66
2023/03/01 17:32:40;;;;;;;4.00;1.42;;;8.40;95.30;;;;;;5005911;28;20767;-65
2023/03/01 17:35:07;;;;;;;4.05;2.45;;;8.30;95.00;;;;;;5009628;28;20037;-65
2023/03/01 17:37:33;;;;;;;5.13;3.20;;;8.10;95.40;;;;;;5007477;28;20043;-66
2023/03/01 17:39:59;;;;;;;7.32;3.95;;;8.00;95.40;;;;;;5016332;28;20067;-66
2023/03/01 17:42:24;;;;;;;8.05;4.78;;;8.00;96.70;;;;;;5021526;28;20256;-65
2023/03/01 17:44:50;;;;;;;3.60;2.60;;;7.90;96.80;;;;;;5026222;28;20037;-62
2023/03/01 17:47:16;;;;;;;7.70;4.63;;;7.80;97.40;;;;;;5013625;28;20040;-62
2023/03/01 17:49:42;;;;;;;9.05;1.90;;;7.80;97.60;;;;;;5010877;28;20497;-62
2023/03/01 17:52:08;;;;;;;5.88;3.25;;;7.80;98.50;;;;;;4999539;28;20977;-63
2023/03/01 17:54:34;;;;;;;4.65;1.77;;;7.70;97.70;;;;;;5003638;28;20056;-63
2023/03/01 17:56:59;;;;;;;4.20;1.38;;;7.50;97.90;;;;;;5020223;28;20048;-62
2023/03/01 17:59:30;;;;;;;2.28;1.60;;;7.30;99.10;;;;;;5018345;28;20182;-62
2023/03/01 18:01:57;;;;;;;4.85;1.58;;;7.20;99.90;;;;;;5015900;28;20086;-62
2023/03/01 18:04:23;;;;;;;4.90;1.85;;;7.20;99.90;;;;;;5023792;28;20029;-66
2023/03/01 18:06:49;;;;;;;1.95;1.27;;;7.20;99.90;;;;;;5016152;28;20041;-66
2023/03/01 18:09:15;;;;;;;1.52;1.20;;;7.10;99.90;;;;;;5027759;28;20037;-65
2023/03/01 18:11:43;;;;;;;2.22;1.67;;;6.90;99.90;;;;;;5028153;28;20045;-65
2023/03/01 18:14:09;;;;;;;2.33;1.90;;;6.80;99.90;;;;;;5020919;28;20142;-65
2023/03/01 18:16:35;;;;;;;4.97;1.60;;;6.70;99.90;;;;;;5026010;28;20040;-65
2023/03/01 18:19:01;;;;;;;3.75;1.65;;;6.70;99.90;;;;;;5027021;28;21082;-65
2023/03/01 18:21:28;;;;;;;1.92;1.25;;;6.70;99.90;;;;;;5024723;28;20041;-65
2023/03/01 18:23:54;;;;;;;3.53;1.70;;;6.70;99.90;;;;;;5011868;28;20040;-65
2023/03/01 18:26:23;;;;;;;4.70;1.90;;;6.70;99.90;;;;;;5017513;28;20100;-65
2023/03/01 18:28:51;;;;;;;8.00;2.30;;;6.60;99.90;;;;;;5014616;28;20408;-65
2023/03/01 18:31:21;;;;;;;9.48;3.15;;;6.40;99.90;;;;;;4972228;28;20490;-66
2023/03/01 18:33:47;;;;;;;15.43;8.18;;;6.50;99.90;;;;;;5023533;28;20136;-65
2023/03/01 18:36:33;;;;;;;24.20;11.65;;;6.50;99.90;;;;;;5021497;28;20382;-65
2023/03/01 18:39:02;;;;;;;15.82;7.85;;;6.60;99.90;;;;;;5019149;28;20040;-65
2023/03/01 18:41:29;;;;;;;10.55;5.35;;;6.70;99.90;;;;;;5018445;28;20045;-62
2023/03/01 18:43:56;;;;;;;5.43;3.03;;;6.70;99.90;;;;;;5001611;28;20030;-62
2023/03/01 18:46:22;;;;;;;3.30;2.25;;;6.50;99.90;;;;;;5009626;28;20686;-62
2023/03/01 18:48:48;;;;;;;3.47;1.75;;;6.30;99.90;;;;;;5026180;28;20374;-62
2023/03/01 18:51:27;;;;;;;3.80;1.88;;;6.10;99.90;;;;;;5009794;28;20404;-62
2023/03/01 18:53:54;;;;;;;2.70;1.52;;;5.90;99.90;;;;;;5025424;28;20041;-62
2023/03/01 18:56:20;;;;;;;5.22;1.50;;;5.80;99.90;;;;;;5023053;28;20033;-61
2023/03/01 18:58:46;;;;;;;2.65;1.52;;;5.80;99.90;;;;;;5018652;28;20548;-62
2023/03/01 19:01:19;;;;;;;3.92;1.80;;;5.70;99.90;;;;;;5001954;28;20048;-62
2023/03/01 19:03:46;;;;;;;3.45;1.55;;;5.60;99.90;;;;;;5010972;28;20431;-61
2023/03/01 19:06:14;;;;;;;5.90;3.20;;;5.50;99.90;;;;;;5010790;28;20057;-61
2023/03/01 19:08:41;;;;;;;6.15;3.80;;;5.50;99.90;;;;;;5015913;28;20040;-61
2023/03/01 19:11:08;;;;;;;6.53;3.85;;;5.50;99.90;;;;;;5018832;28;20086;-61
2023/03/01 19:13:36;;;;;;;4.32;2.00;;;5.50;99.90;;;;;;5011760;28;20037;-61
2023/03/01 19:16:08;;;;;;;2.47;1.70;;;5.60;99.90;;;;;;5018373;28;20033;-61
2023/03/01 19:18:38;;;;;;;3.15;1.50;;;5.70;99.90;;;;;;4990768;28;20068;-65
2023/03/01 19:21:05;;;;;;;4.18;2.55;;;5.60;99.90;;;;;;5012041;28;20417;-66
2023/03/01 19:23:37;;;;;;;5.13;3.28;;;5.50;99.90;;;;;;5022340;28;20048;-68
2023/03/01 19:26:11;;;;;;;4.95;3.03;;;5.40;99.90;;;;;;5013789;28;20264;-66
2023/03/01 19:28:41;;;;;;;6.40;3.42;;;5.40;99.90;;;;;;5022311;28;20051;-65
2023/03/01 19:31:10;;;;;;;9.68;5.75;;;5.50;99.90;;;;;;5018760;28;20128;-66
2023/03/01 19:33:38;;;;;;;14.40;8.95;;;5.50;99.90;;;;;;5020628;28;20037;-66
2023/03/01 19:36:07;;;;;;;26.38;12.23;;;5.50;99.90;;;;;;5010982;28;20049;-61
2023/03/01 19:38:33;;;;;;;16.02;10.15;;;5.40;99.90;;;;;;4990502;28;20048;-66
2023/03/01 19:41:08;;;;;;;10.60;6.57;;;5.40;99.90;;;;;;5029944;28;20073;-65
2023/03/01 19:43:34;;;;;;;28.02;13.38;;;5.40;99.90;;;;;;5039871;28;20121;-65
2023/03/01 19:46:01;;;;;;;6.95;4.25;;;5.40;99.90;;;;;;5022868;28;20552;-65
2023/03/01 19:48:28;;;;;;;14.32;8.52;;;5.30;99.90;;;;;;5022955;28;20042;-65
2023/03/01 19:50:54;;;;;;;21.30;12.63;;;5.20;99.90;;;;;;5046994;28;20535;-65
2023/03/01 19:53:20;;;;;;;11.45;6.93;;;5.20;99.90;;;;;;5037048;28;20037;-65
2023/03/01 19:55:48;;;;;;;5.53;3.50;;;5.10;99.90;;;;;;5018625;28;20521;-62
2023/03/01 19:58:16;;;;;;;3.88;2.47;;;5.10;99.90;;;;;;5021537;28;20131;-62
2023/03/01 20:00:46;;;;;;;2.30;1.60;;;5.10;99.90;;;;;;5042039;28;20115;-62
2023/03/01 20:03:12;;;;;;;3.88;1.73;;;5.00;99.90;;;;;;5036844;28;20600;-61
2023/03/01 20:05:39;;;;;;;2.00;1.60;;;4.90;99.90;;;;;;5024652;28;20048;-62
2023/03/01 20:08:08;;;;;;;1.92;1.63;;;4.80;99.90;;;;;;5043177;28;20040;-61
2023/03/01 20:10:34;;;;;;;3.05;1.80;;;4.80;99.90;;;;;;5039473;28;22195;-62
2023/03/01 20:13:01;;;;;;;3.05;2.30;;;4.70;99.90;;;;;;5042173;28;20103;-65
2023/03/01 20:15:29;;;;;;;5.40;3.05;;;4.70;99.90;;;;;;5032824;28;20121;-65
2023/03/01 20:17:56;;;;;;;7.53;4.22;;;4.70;99.90;;;;;;5005249;28;20044;-65
2023/03/01 20:20:22;;;;;;;7.35;3.78;;;4.60;99.90;;;;;;5036973;28;20140;-65
2023/03/01 20:22:48;;;;;;;9.52;5.60;;;4.60;99.90;;;;;;5042628;28;20044;-65
2023/03/01 20:25:14;;;;;;;13.75;8.95;;;4.60;99.90;;;;;;5037577;28;20072;-65
2023/03/01 20:27:46;;;;;;;14.88;9.60;;;4.60;99.90;;;;;;5024434;28;20589;-65
2023/03/01 20:30:14;;;;;;;11.75;7.53;;;4.60;99.90;;;;;;5039910;28;20341;-65
2023/03/01 20:32:40;;;;;;;11.93;8.27;;;4.60;99.90;;;;;;5038766;28;20079;-65
2023/03/01 20:35:07;;;;;;;12.30;7.53;;;4.50;99.90;;;;;;5036911;28;20064;-66
2023/03/01 20:37:33;;;;;;;8.32;3.97;;;4.50;99.90;;;;;;5043611;28;20949;-66
2023/03/01 20:40:01;;;;;;;8.00;5.57;;;4.40;99.90;;;;;;5041947;28;20049;-65
2023/03/01 20:42:26;;;;;;;2.03;1.85;;;4.40;99.90;;;;;;5036321;28;20049;-65
2023/03/01 20:44:53;;;;;;;8.52;3.85;;;4.40;99.90;;;;;;5016106;28;20098;-65
2023/03/01 20:47:21;;;;;;;2.20;2.00;;;4.30;99.90;;;;;;5013005;28;20532;-65
2023/03/01 20:49:50;;;;;;;6.20;3.50;;;4.30;99.90;;;;;;5034920;28;20605;-65
2023/03/01 20:52:17;;;;;;;4.65;1.73;;;4.30;99.90;;;;;;5019191;28;20044;-65
2023/03/01 20:54:42;;;;;;;4.22;2.80;;;4.30;99.90;;;;;;5045123;28;20402;-65
2023/03/01 20:57:08;;;;;;;10.18;4.22;;;4.20;99.90;;;;;;5034247;28;20040;-65
2023/03/01 20:59:34;;;;;;;6.75;4.35;;;4.20;99.90;;;;;;5034835;28;20040;-65
2023/03/01 21:02:01;;;;;;;11.98;6.90;;;4.40;99.90;;;;;;5042503;28;20056;-65
2023/03/01 21:04:26;;;;;;;29.50;14.25;;;4.50;99.90;;;;;;5031595;28;20036;-65
2023/03/01 21:06:52;;;;;;;33.90;19.27;;;4.60;99.90;;;;;;5040531;28;20333;-63
2023/03/01 21:09:18;;;;;;;35.22;20.83;;;4.70;99.90;;;;;;5027612;28;20075;-62
2023/03/01 21:11:44;;;;;;;44.47;27.00;;;4.80;99.90;;;;;;5042844;28;20072;-62
2023/03/01 21:14:11;;;;;;;31.70;19.85;;;4.80;99.90;;;;;;5033468;28;20277;-61
2023/03/01 21:16:37;;;;;;;25.33;15.50;;;4.80;99.90;;;;;;5039933;28;23578;-63
2023/03/01 21:19:06;;;;;;;20.65;12.27;;;4.80;99.90;;;;;;5025713;28;20040;-63
2023/03/01 21:21:32;;;;;;;35.08;19.20;;;4.60;99.90;;;;;;5026979;28;20587;-63
2023/03/01 21:23:58;;;;;;;22.08;12.90;;;4.50;99.90;;;;;;5014554;28;20172;-63
2023/03/01 21:26:26;;;;;;;21.25;11.98;;;4.40;99.90;;;;;;5031591;28;20226;-64
2023/03/01 21:29:00;;;;;;;19.10;10.82;;;4.30;99.90;;;;;;5021167;28;20135;-65
2023/03/01 21:31:34;;;;;;;20.85;10.85;;;4.30;99.90;;;;;;5025367;28;20383;-65
2023/03/01 21:34:05;;;;;;;16.75;9.98;;;4.20;99.90;;;;;;5017885;28;20070;-66
2023/03/01 21:36:32;;;;;;;16.48;10.10;;;4.20;99.90;;;;;;5034117;28;20032;-65
2023/03/01 21:39:00;;;;;;;20.15;11.05;;;4.10;99.90;;;;;;5029321;28;20112;-65
2023/03/01 21:41:32;;;;;;;15.05;8.43;;;4.10;99.90;;;;;;5036789;28;20576;-65
2023/03/01 21:43:59;;;;;;;7.32;3.92;;;4.00;99.90;;;;;;5026880;28;20736;-64
2023/03/01 21:46:31;;;;;;;7.20;4.38;;;3.90;99.90;;;;;;5045366;28;20596;-65
2023/03/01 21:48:57;;;;;;;8.52;4.45;;;3.90;99.90;;;;;;5020303;28;20976;-66
2023/03/01 21:51:25;;;;;;;9.85;5.03;;;3.80;99.90;;;;;;5025793;28;20049;-67
2023/03/01 21:53:51;;;;;;;9.05;4.70;;;3.60;99.90;;;;;;5041583;28;20032;-67
2023/03/01 21:56:21;;;;;;;7.72;4.50;;;3.50;99.90;;;;;;5042080;28;20484;-67
2023/03/01 21:58:47;;;;;;;10.35;4.80;;;3.50;99.90;;;;;;5046182;28;20041;-66
2023/03/01 22:01:16;;;;;;;7.70;4.47;;;3.40;99.90;;;;;;5052603;28;20071;-66
2023/03/01 22:03:45;;;;;;;7.50;5.07;;;3.50;99.90;;;;;;5043683;28;20455;-65
2023/03/01 22:06:19;;;;;;;7.65;4.75;;;3.50;99.90;;;;;;5051847;28;20032;-65
2023/03/01 22:08:48;;;;;;;10.60;5.63;;;3.40;99.90;;;;;;5051648;28;20630;-65
2023/03/01 22:11:18;;;;;;;8.38;5.50;;;3.30;99.90;;;;;;5050824;28;20045;-65
2023/03/01 22:13:45;;;;;;;10.80;6.78;;;3.30;99.90;;;;;;5033560;28;20172;-64
2023/03/01 22:16:10;;;;;;;13.55;6.68;;;3.30;99.90;;;;;;5047129;28;20036;-64
2023/03/01 22:18:36;;;;;;;28.45;15.98;;;3.40;99.90;;;;;;5041723;28;20040;-64
2023/03/01 22:21:04;;;;;;;21.00;10.40;;;3.50;99.90;;;;;;5035992;28;20045;-64
2023/03/01 22:23:30;;;;;;;12.65;8.18;;;3.70;99.90;;;;;;5034805;28;20188;-64
2023/03/01 22:25:56;;;;;;;7.28;4.88;;;3.70;99.90;;;;;;5044516;28;20131;-64
2023/03/01 22:28:22;;;;;;;8.07;4.55;;;3.60;99.90;;;;;;5025558;28;20730;-65
2023/03/01 22:30:47;;;;;;;6.53;4.28;;;3.20;99.90;;;;;;4978259;28;20450;-65
2023/03/01 22:33:13;;;;;;;7.68;4.75;;;2.80;99.90;;;;;;5034265;28;20468;-65
2023/03/01 22:35:42;;;;;;;7.72;4.65;;;2.80;99.90;;;;;;5036017;28;20049;-65
2023/03/01 22:38:08;;;;;;;7.72;4.13;;;2.90;99.90;;;;;;5044896;28;20029;-65
2023/03/01 22:40:34;;;;;;;6.28;4.28;;;2.90;99.90;;;;;;5052193;28;20059;-64
2023/03/01 22:43:00;;;;;;;5.82;4.40;;;2.90;99.90;;;;;;5046034;28;20040;-64
2023/03/01 22:45:31;;;;;;;9.75;5.30;;;2.90;99.90;;;;;;5014236;28;20030;-65
2023/03/01 22:47:59;;;;;;;10.38;5.88;;;2.90;99.90;;;;;;5022520;28;20074;-65
2023/03/01 22:50:28;;;;;;;17.42;10.95;;;3.00;99.90;;;;;;5037935;28;20029;-64
2023/03/01 22:52:54;;;;;;;33.08;19.55;;;3.20;99.90;;;;;;5049807;28;20162;-65
2023/03/01 22:55:20;;;;;;;24.27;14.85;;;3.20;99.90;;;;;;5043082;28;20149;-65
2023/03/01 22:57:49;;;;;;;14.88;7.88;;;3.30;99.90;;;;;;5046587;28;20434;-63
2023/03/01 23:00:15;;;;;;;8.02;5.07;;;3.30;99.90;;;;;;5048335;28;20036;-63
2023/03/01 23:02:41;;;;;;;8.63;5.18;;;3.10;99.90;;;;;;5033191;28;20224;-63
2023/03/01 23:05:08;;;;;;;8.50;5.43;;;2.90;99.90;;;;;;5040999;28;20044;-63
2023/03/01 23:07:34;;;;;;;10.20;5.40;;;2.90;99.90;;;;;;5038309;28;20463;-63
2023/03/01 23:10:01;;;;;;;7.35;4.63;;;2.90;99.90;;;;;;5049233;28;20771;-63
2023/03/01 23:12:28;;;;;;;7.28;4.72;;;2.80;99.90;;;;;;5029828;28;20047;-63
2023/03/01 23:14:54;;;;;;;6.70;4.57;;;2.70;99.90;;;;;;5046109;28;20041;-63
2023/03/01 23:17:19;;;;;;;7.20;4.30;;;2.70;99.90;;;;;;5045785;28;20074;-65
2023/03/01 23:19:45;;;;;;;6.38;3.97;;;2.70;99.90;;;;;;5047761;28;20032;-63
2023/03/01 23:22:11;;;;;;;5.53;4.30;;;2.80;99.90;;;;;;5041309;28;20638;-62
2023/03/01 23:24:36;;;;;;;8.85;5.15;;;2.80;99.90;;;;;;5035217;28;20044;-63
2023/03/01 23:27:03;;;;;;;8.63;5.20;;;2.70;99.90;;;;;;5042775;28;20090;-62
2023/03/01 23:29:30;;;;;;;7.00;5.05;;;2.80;99.90;;;;;;5045786;28;20123;-63
2023/03/01 23:31:56;;;;;;;5.45;4.05;;;2.70;99.90;;;;;;5041849;28;20032;-63
2023/03/01 23:34:23;;;;;;;8.07;5.25;;;2.80;99.90;;;;;;5045168;28;20086;-63
2023/03/01 23:36:51;;;;;;;5.82;4.18;;;2.80;99.90;;;;;;5042102;28;20037;-65
2023/03/01 23:39:17;;;;;;;7.18;3.67;;;2.80;99.90;;;;;;5032499;28;21223;-66
2023/03/01 23:41:42;;;;;;;5.85;3.75;;;2.80;99.90;;;;;;5042892;28;20077;-65
2023/03/01 23:44:15;;;;;;;5.80;2.90;;;2.80;99.90;;;;;;5047971;28;20037;-65
2023/03/01 23:46:42;;;;;;;5.57;3.85;;;2.60;99.90;;;;;;5037798;28;20064;-66
2023/03/01 23:49:11;;;;;;;4.88;3.55;;;2.60;99.90;;;;;;5045522;28;20045;-65
2023/03/01 23:51:48;;;;;;;4.32;3.25;;;2.60;99.90;;;;;;5043563;28;20115;-64
2023/03/01 23:54:18;;;;;;;4.60;2.90;;;2.60;99.90;;;;;;5044651;28;20147;-64
2023/03/01 23:56:44;;;;;;;4.45;3.42;;;2.50;99.90;;;;;;5032086;28;21419;-64
2023/03/01 23:59:16;;;;;;;5.63;4.00;;;2.60;99.90;;;;;;5027684;28;20494;-64
